X  CloseMetar Aviation Weather Data     YMAV Avalon

Temperature

13°C Temperature

10°C Dewpoint

82% Humidity



Wind

16 KM/H

10 MPH

 4 M/S

 9 KTS



300°
West North
West
Current Conditions

Mostly Scattered Clouds Mostly Scattered Clouds
Pressure 1010.92 (hPa) - 29.85 (in)
Visibility 6.2 (mi) - 10 (km)
Airport
Airport-code YMAV

Location Avalon 14 (km)

Metar:
YMAV 141330Z AUTO 30009KT 9999 // SCT024 13/10 Q1011 RF00.0/000.2

Time: 15-11-2019 00:30